^^
Station Historical Data
 
Daily Summary for January 18, 2018 Units:  English    Metric   Both
« Previous Day
Next Day »
Daily Weekly Monthly Yearly Custom
  Current: High: Low: Average:
Temperature: 47.9 °F 47.9 °F 16.7 °F 25.5 °F
Dew Point: 24.1 °F 25.9 °F 11.6 °F 16.3 °F
Humidity: 39% 82% 39% 70%
Wind Speed: 2.0mph 3.5mph 0.0mph 0.6mph
Wind Gust: 2.0mph 3.5mph - -
WindWSW - - WSW
Pressure: 30.00 in 30.23 in 30.00 in -
Precipitation: 0.00 in      
Historical Graphs
 
 
Tabular Data for January 18, 2018
Time Temperature Dew Point Pressure Wind Wind Speed Wind Gust Humidity Rainfall Rate (Hourly) solar Conditions
00:03 22.4 °F 14.1 °F 30.20 in Calm     70% 0.00 in WeatherDisplay:10.37 W/m2 RA
00:08 22.0 °F 14.0 °F 30.21 in Calm     71% 0.00 in WeatherDisplay:10.37 W/m2 RA
00:13 21.7 °F 14.4 °F 30.21 in Calm     73% 0.00 in WeatherDisplay:10.37 W/m2 CLR
00:18 21.7 °F 14.4 °F 30.21 in Calm     73% 0.00 in WeatherDisplay:10.37 W/m2 CLR
00:23 21.6 °F 14.3 °F 30.20 in Calm     73% 0.00 in WeatherDisplay:10.37 W/m2 CLR
00:28 21.6 °F 14.3 °F 30.19 in Calm     73% 0.00 in WeatherDisplay:10.37 W/m2 CLR
00:33 21.5 °F 14.2 °F 30.19 in Calm     73% 0.00 in WeatherDisplay:10.37 W/m2 CLR
00:43 21.1 °F 14.1 °F 30.19 in Calm     74% 0.00 in WeatherDisplay:10.37 W/m2 CLR
00:48 20.8 °F 13.8 °F 30.19 in Calm     74% 0.00 in WeatherDisplay:10.37 W/m2 CLR
00:53 20.6 °F 13.6 °F 30.19 in Calm     74% 0.00 in WeatherDisplay:10.37 W/m2 CLR
00:58 20.5 °F 13.8 °F 30.19 in Calm     75% 0.00 in WeatherDisplay:10.37 W/m2 CLR
01:03 20.5 °F 13.8 °F 30.18 in Calm     75% 0.00 in WeatherDisplay:10.37 W/m2 CLR
01:08 20.8 °F 14.1 °F 30.17 in Calm     75% 0.00 in WeatherDisplay:10.37 W/m2 CLR
01:13 21.3 °F 14.3 °F 30.17 in Calm     74% 0.00 in WeatherDisplay:10.37 W/m2 CLR
01:18 21.6 °F 14.3 °F 30.17 in Calm     73% 0.00 in WeatherDisplay:10.37 W/m2 CLR
01:23 21.8 °F 14.2 °F 30.16 in Calm     72% 0.00 in WeatherDisplay:10.37 W/m2 CLR
01:28 21.8 °F 13.8 °F 30.16 in Calm     71% 0.00 in WeatherDisplay:10.37 W/m2 CLR
01:33 21.7 °F 13.7 °F 30.16 in SSW 1.2 mph 1.2 mph 71% 0.00 in WeatherDisplay:10.37 W/m2 CLR
01:38 21.5 °F 13.2 °F 30.16 in Calm     70% 0.00 in WeatherDisplay:10.37 W/m2 CLR
01:43 21.2 °F 12.9 °F 30.16 in Calm     70% 0.00 in WeatherDisplay:10.37 W/m2 CLR
01:48 21.0 °F 13.1 °F 30.16 in Calm     71% 0.00 in WeatherDisplay:10.37 W/m2 CLR
01:53 21.1 °F 13.5 °F 30.16 in Calm     72% 0.00 in WeatherDisplay:10.37 W/m2 CLR
01:58 21.2 °F 13.6 °F 30.16 in Calm     72% 0.00 in WeatherDisplay:10.37 W/m2 CLR
02:03 21.3 °F 13.7 °F 30.15 in SSW 1.2 mph 1.2 mph 72% 0.00 in WeatherDisplay:10.37 W/m2 CLR
02:08 21.7 °F 14.1 °F 30.14 in SSW 2.3 mph 2.3 mph 72% 0.00 in WeatherDisplay:10.37 W/m2 CLR
02:13 22.2 °F 14.2 °F 30.14 in Calm     71% 0.00 in WeatherDisplay:10.37 W/m2 CLR
02:18 22.4 °F 13.8 °F 30.14 in Calm     69% 0.00 in WeatherDisplay:10.37 W/m2 CLR
02:23 22.3 °F 13.7 °F 30.14 in Calm     69% 0.00 in WeatherDisplay:10.37 W/m2 CLR
02:28 22.2 °F 13.6 °F 30.13 in Calm     69% 0.00 in WeatherDisplay:10.37 W/m2 CLR
02:33 22.0 °F 13.7 °F 30.13 in Calm     70% 0.00 in WeatherDisplay:10.37 W/m2 CLR
02:38 21.8 °F 13.5 °F 30.13 in Calm     70% 0.00 in WeatherDisplay:10.37 W/m2 CLR
02:43 21.6 °F 13.6 °F 30.12 in Calm     71% 0.00 in WeatherDisplay:10.37 W/m2 CLR
02:48 21.4 °F 13.5 °F 30.13 in Calm     71% 0.00 in WeatherDisplay:10.37 W/m2 CLR
02:53 21.2 °F 13.6 °F 30.13 in Calm     72% 0.00 in WeatherDisplay:10.37 W/m2 CLR
02:58 20.9 °F 13.0 °F 30.13 in Calm     71% 0.00 in WeatherDisplay:10.37 W/m2 CLR
03:03 20.6 °F 12.7 °F 30.14 in Calm     71% 0.00 in WeatherDisplay:10.37 W/m2 CLR
03:08 20.3 °F 13.0 °F 30.14 in Calm     73% 0.00 in WeatherDisplay:10.37 W/m2 CLR
03:13 20.1 °F 13.1 °F 30.13 in Calm     74% 0.00 in WeatherDisplay:10.37 W/m2 CLR
03:18 20.0 °F 13.3 °F 30.13 in Calm     75% 0.00 in WeatherDisplay:10.37 W/m2 CLR
03:23 20.0 °F 13.3 °F 30.13 in Calm     75% 0.00 in WeatherDisplay:10.37 W/m2 CLR
03:28 20.0 °F 13.3 °F 30.13 in Calm     75% 0.00 in WeatherDisplay:10.37 W/m2 CLR
03:33 19.9 °F 13.3 °F 30.12 in Calm     75% 0.00 in WeatherDisplay:10.37 W/m2 CLR
03:38 19.7 °F 13.1 °F 30.12 in Calm     75% 0.00 in WeatherDisplay:10.37 W/m2 CLR
03:43 19.7 °F 13.1 °F 30.12 in Calm     75% 0.00 in WeatherDisplay:10.37 W/m2 CLR
03:48 19.6 °F 13.6 °F 30.12 in SSW 1.2 mph   77% 0.00 in WeatherDisplay:10.37 W/m2 CLR
03:53 19.6 °F 13.6 °F 30.12 in SSW 2.3 mph 2.3 mph 77% 0.00 in WeatherDisplay:10.37 W/m2 CLR
03:58 19.4 °F 13.1 °F 30.11 in Calm     76% 0.00 in WeatherDisplay:10.37 W/m2 CLR
04:03 19.3 °F 13.0 °F 30.15 in Calm     76% 0.00 in WeatherDisplay:10.37 W/m2 CLR
04:09 19.1 °F 12.8 °F 30.15 in SSW 1.2 mph 1.2 mph 76% 0.00 in WeatherDisplay:10.37 W/m2 CLR
04:19 18.8 °F 12.5 °F 30.15 in Calm     76% 0.00 in WeatherDisplay:10.37 W/m2 CLR
04:24 18.5 °F 12.2 °F 30.16 in Calm     76% 0.00 in WeatherDisplay:10.37 W/m2 CLR
04:29 18.4 °F 12.7 °F 30.16 in Calm     78% 0.00 in WeatherDisplay:10.37 W/m2 CLR
04:34 18.3 °F 12.6 °F 30.16 in Calm     78% 0.00 in WeatherDisplay:10.37 W/m2 CLR
04:39 18.3 °F 12.6 °F 30.16 in Calm     78% 0.00 in WeatherDisplay:10.37 W/m2 CLR
04:44 18.3 °F 12.6 °F 30.16 in Calm     78% 0.00 in WeatherDisplay:10.37 W/m2 CLR
04:49 18.2 °F 12.5 °F 30.16 in Calm     78% 0.00 in WeatherDisplay:10.37 W/m2 CLR
04:54 18.2 °F 12.5 °F 30.16 in Calm     78% 0.00 in WeatherDisplay:10.37 W/m2 CLR
04:59 18.1 °F 12.7 °F 30.16 in Calm     79% 0.00 in WeatherDisplay:10.37 W/m2 CLR
05:04 18.0 °F 12.3 °F 30.19 in Calm     78% 0.00 in WeatherDisplay:10.37 W/m2 CLR
05:09 17.9 °F 12.2 °F 30.20 in Calm     78% 0.00 in WeatherDisplay:10.37 W/m2 CLR
05:14 18.0 °F 13.2 °F 30.19 in Calm     81% 0.00 in WeatherDisplay:10.37 W/m2 CLR
05:19 18.0 °F 12.9 °F 30.19 in Calm     80% 0.00 in WeatherDisplay:10.37 W/m2 CLR
05:24 17.9 °F 12.5 °F 30.18 in Calm     79% 0.00 in WeatherDisplay:10.37 W/m2 CLR
05:29 17.8 °F 12.4 °F 30.18 in Calm     79% 0.00 in WeatherDisplay:10.37 W/m2 CLR
05:34 17.5 °F 11.8 °F 30.18 in Calm     78% 0.00 in WeatherDisplay:10.37 W/m2 CLR
05:39 17.3 °F 11.9 °F 30.18 in Calm     79% 0.00 in WeatherDisplay:10.37 W/m2 CLR
05:44 17.3 °F 12.5 °F 30.18 in Calm     81% 0.00 in WeatherDisplay:10.37 W/m2 CLR
05:49 17.5 °F 12.7 °F 30.17 in Calm     81% 0.00 in WeatherDisplay:10.37 W/m2 CLR
05:54 17.5 °F 12.7 °F 30.17 in Calm     81% 0.00 in WeatherDisplay:10.37 W/m2 CLR
05:59 17.7 °F 12.9 °F 30.16 in Calm     81% 0.00 in WeatherDisplay:10.37 W/m2 CLR
06:04 17.8 °F 13.0 °F 30.17 in SSW 1.2 mph   81% 0.00 in WeatherDisplay:10.37 W/m2 CLR
06:09 17.8 °F 13.0 °F 30.17 in Calm     81% 0.00 in WeatherDisplay:10.37 W/m2 CLR
06:14 17.9 °F 12.8 °F 30.17 in SSW 1.2 mph   80% 0.00 in WeatherDisplay:10.37 W/m2 CLR
06:19 17.9 °F 12.8 °F 30.18 in SSW 2.3 mph 2.3 mph 80% 0.00 in WeatherDisplay:10.37 W/m2 CLR
06:24 18.0 °F 12.9 °F 30.17 in SSW 1.2 mph 1.2 mph 80% 0.00 in WeatherDisplay:10.37 W/m2 CLR
06:29 18.0 °F 12.6 °F 30.18 in SSW 1.2 mph   79% 0.00 in WeatherDisplay:10.37 W/m2 CLR
06:34 17.8 °F 12.4 °F 30.18 in Calm     79% 0.00 in WeatherDisplay:10.37 W/m2 CLR
06:39 17.7 °F 12.3 °F 30.17 in Calm     79% 0.00 in WeatherDisplay:10.37 W/m2 CLR
06:44 17.6 °F 12.2 °F 30.18 in Calm     79% 0.00 in WeatherDisplay:10.37 W/m2 CLR
06:49 17.4 °F 12.0 °F 30.20 in Calm     79% 0.00 in WeatherDisplay:10.37 W/m2 CLR
06:54 17.2 °F 11.8 °F 30.20 in Calm     79% 0.00 in WeatherDisplay:10.37 W/m2 CLR
06:59 17.0 °F 11.6 °F 30.21 in Calm     79% 0.00 in WeatherDisplay:10.37 W/m2 CLR
07:04 16.8 °F 11.7 °F 30.22 in Calm     80% 0.00 in WeatherDisplay:10.37 W/m2 CLR
07:09 16.8 °F 11.7 °F 30.22 in Calm     80% 0.00 in WeatherDisplay:10.37 W/m2 CLR
07:14 16.7 °F 11.9 °F 30.22 in Calm     81% 0.00 in WeatherDisplay:10.37 W/m2 CLR
07:19 16.7 °F 12.2 °F 30.22 in Calm     82% 0.00 in WeatherDisplay:10.37 W/m2 CLR
07:24 17.0 °F 12.5 °F 30.23 in Calm     82% 0.00 in WeatherDisplay:10.37 W/m2 CLR
07:29 17.3 °F 12.7 °F 30.22 in Calm     82% 0.00 in WeatherDisplay:10.37 W/m2 CLR
07:34 17.6 °F 12.8 °F 30.22 in Calm     81% 0.00 in WeatherDisplay:10.37 W/m2 CLR
07:39 17.8 °F 13.0 °F 30.23 in Calm     81% 0.00 in WeatherDisplay:10.37 W/m2 CLR
07:44 18.0 °F 12.9 °F 30.23 in Calm     80% 0.00 in WeatherDisplay:10.37 W/m2 CLR
07:49 18.3 °F 12.9 °F 30.23 in Calm     79% 0.00 in WeatherDisplay:10.37 W/m2 CLR
07:54 18.4 °F 12.7 °F 30.23 in Calm     78% 0.00 in WeatherDisplay:10.37 W/m2 CLR
07:59 18.6 °F 12.9 °F 30.22 in Calm     78% 0.00 in WeatherDisplay:10.37 W/m2 CLR
08:04 19.0 °F 13.6 °F 30.22 in Calm     79% 0.00 in WeatherDisplay:10.37 W/m2 CLR
08:09 19.5 °F 14.0 °F 30.22 in Calm     79% 0.00 in WeatherDisplay:10.37 W/m2 CLR
08:14 20.0 °F 14.2 °F 30.22 in Calm     78% 0.00 in WeatherDisplay:10.37 W/m2 CLR
08:19 20.9 °F 15.1 °F 30.21 in SSW 2.3 mph 2.3 mph 78% 0.00 in WeatherDisplay:10.37 W/m2 CLR
08:24 21.6 °F 15.5 °F 30.21 in SSW 3.5 mph 3.5 mph 77% 0.00 in WeatherDisplay:10.37 W/m2 CLR
08:29 22.2 °F 16.1 °F 30.20 in SSW 2.0 mph 2.0 mph 77% 0.00 in WeatherDisplay:10.37 W/m2 CLR
08:34 23.0 °F 16.9 °F 30.19 in Calm     77% 0.00 in WeatherDisplay:10.37 W/m2 CLR
08:39 23.6 °F 17.1 °F 30.19 in SSW 1.2 mph 1.2 mph 76% 0.00 in WeatherDisplay:10.37 W/m2 CLR
08:44 24.1 °F 17.6 °F 30.19 in SSW 1.0 mph 1.0 mph 76% 0.00 in WeatherDisplay:10.37 W/m2 CLR
08:49 24.6 °F 18.1 °F 30.18 in SSW 2.3 mph 2.3 mph 76% 0.00 in WeatherDisplay:10.37 W/m2 CLR
08:54 25.2 °F 18.4 °F 30.17 in Calm     75% 0.00 in WeatherDisplay:10.37 W/m2 CLR
08:59 26.1 °F 19.3 °F 30.17 in SW 1.2 mph 1.2 mph 75% 0.00 in WeatherDisplay:10.37 W/m2 CLR
09:04 26.9 °F 19.7 °F 30.19 in North 2.3 mph   74% 0.00 in WeatherDisplay:10.37 W/m2 CLR
09:09 27.7 °F 20.2 °F 30.18 in North 1.0 mph   73% 0.00 in WeatherDisplay:10.37 W/m2 CLR
09:14 28.6 °F 20.7 °F 30.18 in Calm     72% 0.00 in WeatherDisplay:10.37 W/m2 CLR
09:19 29.6 °F 21.3 °F 30.17 in SW 3.5 mph 3.5 mph 71% 0.00 in WeatherDisplay:10.37 W/m2 CLR
09:24 30.4 °F 22.1 °F 30.17 in West 1.2 mph 1.2 mph 71% 0.00 in WeatherDisplay:10.37 W/m2 CLR
09:29 31.2 °F 22.2 °F 30.17 in West 1.2 mph   69% 0.00 in WeatherDisplay:10.37 W/m2 CLR
09:34 31.9 °F 22.2 °F 30.16 in West 2.3 mph 2.3 mph 67% 0.00 in WeatherDisplay:10.37 W/m2 CLR
09:39 32.6 °F 22.8 °F 30.16 in West 1.2 mph 1.2 mph 67% 0.00 in WeatherDisplay:10.37 W/m2 CLR
09:45 33.4 °F 22.9 °F 30.16 in West 3.5 mph 3.5 mph 65% 0.00 in WeatherDisplay:10.37 W/m2 CLR
09:50 33.9 °F 22.6 °F 30.15 in WNW 3.5 mph 3.5 mph 63% 0.00 in WeatherDisplay:10.37 W/m2 CLR
09:55 34.1 °F 22.4 °F 30.15 in WNW 2.3 mph   62% 0.00 in WeatherDisplay:10.37 W/m2 CLR
10:00 34.4 °F 22.7 °F 30.15 in Calm     62% 0.00 in WeatherDisplay:10.37 W/m2 CLR
10:05 34.5 °F 22.8 °F 30.17 in NW 1.2 mph   62% 0.00 in WeatherDisplay:10.37 W/m2 CLR
10:10 35.2 °F 23.1 °F 30.16 in NW 2.3 mph 2.3 mph 61% 0.00 in WeatherDisplay:10.37 W/m2 CLR
10:15 35.9 °F 23.7 °F 30.16 in NW 1.2 mph 1.2 mph 61% 0.00 in WeatherDisplay:10.37 W/m2 CLR
10:20 36.9 °F 23.5 °F 30.14 in Calm     58% 0.00 in WeatherDisplay:10.37 W/m2 CLR
10:25 37.8 °F 23.9 °F 30.14 in Calm     57% 0.00 in WeatherDisplay:10.37 W/m2 CLR
10:30 38.6 °F 23.4 °F 30.12 in Calm     54% 0.00 in WeatherDisplay:10.37 W/m2 CLR
10:35 39.4 °F 24.1 °F 30.12 in Calm     54% 0.00 in WeatherDisplay:10.37 W/m2 CLR
10:40 40.2 °F 24.0 °F 30.11 in NW 2.3 mph 2.3 mph 52% 0.00 in WeatherDisplay:10.37 W/m2 CLR
10:45 40.8 °F 24.1 °F 30.10 in NW 2.3 mph 2.3 mph 51% 0.00 in WeatherDisplay:10.37 W/m2 CLR
10:50 41.5 °F 23.7 °F 30.10 in NW 2.3 mph 2.3 mph 49% 0.00 in WeatherDisplay:10.37 W/m2 CLR
10:55 41.9 °F 23.1 °F 30.09 in NW 1.2 mph 1.2 mph 47% 0.00 in WeatherDisplay:10.37 W/m2 CLR
11:00 42.4 °F 23.1 °F 30.09 in NW 1.2 mph 1.2 mph 46% 0.00 in WeatherDisplay:10.37 W/m2 CLR
11:05 43.1 °F 24.2 °F 30.08 in NW 1.2 mph   47% 0.00 in WeatherDisplay:10.37 W/m2 CLR
11:10 43.8 °F 24.3 °F 30.08 in West 3.5 mph 3.5 mph 46% 0.00 in WeatherDisplay:10.37 W/m2 CLR
11:15 44.4 °F 25.4 °F 30.07 in Calm     47% 0.00 in WeatherDisplay:10.37 W/m2 CLR
11:21 44.8 °F 23.6 °F 30.06 in West 1.2 mph   43% 0.00 in WeatherDisplay:10.37 W/m2 CLR
11:26 45.2 °F 24.0 °F 30.04 in West 2.3 mph 2.3 mph 43% 0.00 in WeatherDisplay:10.37 W/m2 CLR
11:31 45.5 °F 24.8 °F 30.04 in West 1.2 mph   44% 0.00 in WeatherDisplay:10.37 W/m2 CLR
11:36 46.0 °F 24.7 °F 30.04 in WSW 3.5 mph 3.5 mph 43% 0.00 in WeatherDisplay:10.37 W/m2 CLR
11:41 46.3 °F 25.0 °F 30.04 in WSW 1.2 mph 1.2 mph 43% 0.00 in WeatherDisplay:10.37 W/m2 CLR
11:46 46.4 °F 24.5 °F 30.03 in WSW 1.2 mph   42% 0.00 in WeatherDisplay:10.37 W/m2 CLR
11:51 46.7 °F 25.9 °F 30.02 in WSW 1.2 mph   44% 0.00 in WeatherDisplay:10.37 W/m2 CLR
11:56 46.9 °F 25.5 °F 30.01 in Calm     43% 0.00 in WeatherDisplay:10.37 W/m2 CLR
11:57 46.9 °F 25.5 °F 30.01 in Calm     43% 0.00 in WeatherDisplay:10.37 W/m2 CLR
12:02 46.8 °F 24.9 °F 30.02 in WSW 1.2 mph   42% 0.00 in WeatherDisplay:10.37 W/m2 CLR
12:07 46.8 °F 24.3 °F 30.02 in WSW 1.2 mph   41% 0.00 in WeatherDisplay:10.37 W/m2 CLR
12:12 47.1 °F 25.2 °F 30.02 in WSW 2.3 mph 2.3 mph 42% 0.00 in WeatherDisplay:10.37 W/m2 CLR
12:17 47.4 °F 25.4 °F 30.01 in WSW 1.2 mph 1.2 mph 42% 0.00 in WeatherDisplay:10.37 W/m2 CLR
12:22 47.6 °F 24.4 °F 30.01 in WSW 2.3 mph 2.3 mph 40% 0.00 in WeatherDisplay:10.37 W/m2 CLR
12:27 47.9 °F 24.1 °F 30.00 in WSW 2.0 mph 2.0 mph 39% 0.00 in WeatherDisplay:10.37 W/m2 CLR
Windsor Co Weather
Compliments of Weather Underground - 2.25 mb